Terminal Aerodrome Forecast
Issued by NWS

Home | Current Version | Previous Version | Text Only | Print | Product List | Glossary On
Versions: 1 2 3 4 5 6 7 8 9 10 11 12 13 14 15
000
FTUS43 KGRB 202337
TAFMTW
TAF
KMTW 202337Z 2100/2124 20011KT P6SM BKN200 WS013/24050KT
     FM210800 23014G23KT P6SM BKN200 WS013/27040KT
     FM211200 26013G22KT P6SM SCT200
     FM211500 30018G28KT P6SM BKN050
     FM212300 31014G24KT P6SM SCT040=

USA.gov is the U.S. government's official web portal to all federal, state and local government web resources and services.